sensor_id;sensor_type;location;lat;lon;timestamp;P1;durP1;ratioP1;P2;durP2;ratioP2
53253;SDS011;39148;53.332;6.922;2023-08-01T00:00:50;5.65;;;1.38;;
53253;SDS011;39148;53.332;6.922;2023-08-01T00:03:16;3.97;;;1.20;;
53253;SDS011;39148;53.332;6.922;2023-08-01T00:05:42;5.45;;;1.55;;
53253;SDS011;39148;53.332;6.922;2023-08-01T00:08:12;4.32;;;1.30;;
53253;SDS011;39148;53.332;6.922;2023-08-01T00:10:38;4.85;;;1.50;;
53253;SDS011;39148;53.332;6.922;2023-08-01T00:13:05;5.22;;;2.10;;
53253;SDS011;39148;53.332;6.922;2023-08-01T00:15:31;5.13;;;1.40;;
53253;SDS011;39148;53.332;6.922;2023-08-01T00:17:56;4.03;;;1.20;;
53253;SDS011;39148;53.332;6.922;2023-08-01T00:20:22;5.50;;;1.85;;
53253;SDS011;39148;53.332;6.922;2023-08-01T00:22:48;7.30;;;1.67;;
53253;SDS011;39148;53.332;6.922;2023-08-01T00:25:13;5.35;;;1.80;;
53253;SDS011;39148;53.332;6.922;2023-08-01T00:27:39;4.65;;;1.40;;
53253;SDS011;39148;53.332;6.922;2023-08-01T00:30:05;7.50;;;1.75;;
53253;SDS011;39148;53.332;6.922;2023-08-01T00:32:32;4.82;;;1.38;;
53253;SDS011;39148;53.332;6.922;2023-08-01T00:34:57;5.57;;;1.80;;
53253;SDS011;39148;53.332;6.922;2023-08-01T00:37:23;6.47;;;1.83;;
53253;SDS011;39148;53.332;6.922;2023-08-01T00:39:49;7.18;;;1.50;;
53253;SDS011;39148;53.332;6.922;2023-08-01T00:42:15;4.35;;;1.52;;
53253;SDS011;39148;53.332;6.922;2023-08-01T00:44:40;5.82;;;1.73;;
53253;SDS011;39148;53.332;6.922;2023-08-01T00:47:06;3.40;;;1.30;;
53253;SDS011;39148;53.332;6.922;2023-08-01T00:49:32;7.60;;;2.35;;
53253;SDS011;39148;53.332;6.922;2023-08-01T00:51:58;4.20;;;1.50;;
53253;SDS011;39148;53.332;6.922;2023-08-01T00:54:24;6.03;;;1.80;;
53253;SDS011;39148;53.332;6.922;2023-08-01T00:56:50;4.68;;;1.55;;
53253;SDS011;39148;53.332;6.922;2023-08-01T00:59:16;6.07;;;1.77;;
53253;SDS011;39148;53.332;6.922;2023-08-01T01:01:42;7.47;;;1.90;;
53253;SDS011;39148;53.332;6.922;2023-08-01T01:04:08;5.32;;;1.65;;
53253;SDS011;39148;53.332;6.922;2023-08-01T01:09:02;5.38;;;1.73;;
53253;SDS011;39148;53.332;6.922;2023-08-01T01:11:38;4.13;;;1.73;;
53253;SDS011;39148;53.332;6.922;2023-08-01T01:14:04;4.88;;;1.85;;
53253;SDS011;39148;53.332;6.922;2023-08-01T01:16:30;4.68;;;1.55;;
53253;SDS011;39148;53.332;6.922;2023-08-01T01:18:55;3.83;;;1.60;;
53253;SDS011;39148;53.332;6.922;2023-08-01T01:21:21;5.90;;;1.92;;
53253;SDS011;39148;53.332;6.922;2023-08-01T01:23:47;6.18;;;2.03;;
53253;SDS011;39148;53.332;6.922;2023-08-01T01:26:14;6.25;;;2.35;;
53253;SDS011;39148;53.332;6.922;2023-08-01T01:28:42;6.13;;;1.65;;
53253;SDS011;39148;53.332;6.922;2023-08-01T01:31:08;5.32;;;1.85;;
53253;SDS011;39148;53.332;6.922;2023-08-01T01:33:34;6.50;;;1.90;;
53253;SDS011;39148;53.332;6.922;2023-08-01T01:36:00;6.43;;;1.80;;
53253;SDS011;39148;53.332;6.922;2023-08-01T01:38:27;5.10;;;2.05;;
53253;SDS011;39148;53.332;6.922;2023-08-01T01:40:53;8.93;;;2.20;;
53253;SDS011;39148;53.332;6.922;2023-08-01T01:43:18;5.10;;;1.67;;
53253;SDS011;39148;53.332;6.922;2023-08-01T01:45:44;4.75;;;1.52;;
53253;SDS011;39148;53.332;6.922;2023-08-01T01:48:09;5.25;;;2.00;;
53253;SDS011;39148;53.332;6.922;2023-08-01T01:50:35;4.63;;;2.10;;
53253;SDS011;39148;53.332;6.922;2023-08-01T01:53:01;4.50;;;1.60;;
53253;SDS011;39148;53.332;6.922;2023-08-01T01:55:26;7.05;;;1.98;;
53253;SDS011;39148;53.332;6.922;2023-08-01T01:57:52;6.22;;;1.90;;
53253;SDS011;39148;53.332;6.922;2023-08-01T02:00:18;5.90;;;1.90;;
53253;SDS011;39148;53.332;6.922;2023-08-01T02:02:43;6.95;;;2.30;;
53253;SDS011;39148;53.332;6.922;2023-08-01T02:05:09;5.45;;;1.67;;
53253;SDS011;39148;53.332;6.922;2023-08-01T02:07:34;5.97;;;1.90;;
53253;SDS011;39148;53.332;6.922;2023-08-01T02:10:00;6.22;;;2.30;;
53253;SDS011;39148;53.332;6.922;2023-08-01T02:12:27;6.32;;;2.20;;
53253;SDS011;39148;53.332;6.922;2023-08-01T02:14:56;5.47;;;1.73;;
53253;SDS011;39148;53.332;6.922;2023-08-01T02:17:23;5.10;;;1.67;;
53253;SDS011;39148;53.332;6.922;2023-08-01T02:19:49;6.63;;;2.78;;
53253;SDS011;39148;53.332;6.922;2023-08-01T02:22:14;4.85;;;1.98;;
53253;SDS011;39148;53.332;6.922;2023-08-01T02:24:40;6.30;;;1.83;;
53253;SDS011;39148;53.332;6.922;2023-08-01T02:27:06;4.32;;;1.73;;
53253;SDS011;39148;53.332;6.922;2023-08-01T02:29:31;4.20;;;1.80;;
53253;SDS011;39148;53.332;6.922;2023-08-01T02:31:57;4.30;;;1.70;;
53253;SDS011;39148;53.332;6.922;2023-08-01T02:34:23;4.15;;;1.70;;
53253;SDS011;39148;53.332;6.922;2023-08-01T02:36:48;6.60;;;2.03;;
53253;SDS011;39148;53.332;6.922;2023-08-01T02:39:14;6.65;;;1.98;;
53253;SDS011;39148;53.332;6.922;2023-08-01T02:41:39;4.93;;;1.63;;
53253;SDS011;39148;53.332;6.922;2023-08-01T02:44:05;6.32;;;1.98;;
53253;SDS011;39148;53.332;6.922;2023-08-01T02:46:31;5.95;;;1.67;;
53253;SDS011;39148;53.332;6.922;2023-08-01T02:48:56;5.90;;;2.03;;
53253;SDS011;39148;53.332;6.922;2023-08-01T02:51:22;5.22;;;2.05;;
53253;SDS011;39148;53.332;6.922;2023-08-01T02:53:48;4.55;;;2.25;;
53253;SDS011;39148;53.332;6.922;2023-08-01T02:56:13;5.93;;;1.83;;
53253;SDS011;39148;53.332;6.922;2023-08-01T02:58:39;6.43;;;1.90;;
53253;SDS011;39148;53.332;6.922;2023-08-01T03:01:08;5.88;;;1.85;;
53253;SDS011;39148;53.332;6.922;2023-08-01T03:03:35;4.75;;;1.83;;
53253;SDS011;39148;53.332;6.922;2023-08-01T03:06:01;5.43;;;1.90;;
53253;SDS011;39148;53.332;6.922;2023-08-01T03:08:27;5.10;;;1.75;;
53253;SDS011;39148;53.332;6.922;2023-08-01T03:10:53;5.00;;;1.90;;
53253;SDS011;39148;53.332;6.922;2023-08-01T03:13:19;5.57;;;1.92;;
53253;SDS011;39148;53.332;6.922;2023-08-01T03:15:45;4.35;;;1.73;;
53253;SDS011;39148;53.332;6.922;2023-08-01T03:18:11;4.30;;;1.88;;
53253;SDS011;39148;53.332;6.922;2023-08-01T03:20:37;4.78;;;1.85;;
53253;SDS011;39148;53.332;6.922;2023-08-01T03:23:03;3.75;;;1.48;;
53253;SDS011;39148;53.332;6.922;2023-08-01T03:25:28;5.80;;;2.13;;
53253;SDS011;39148;53.332;6.922;2023-08-01T03:27:54;3.90;;;1.80;;
53253;SDS011;39148;53.332;6.922;2023-08-01T03:30:21;6.22;;;2.15;;
53253;SDS011;39148;53.332;6.922;2023-08-01T03:32:47;5.15;;;1.73;;
53253;SDS011;39148;53.332;6.922;2023-08-01T03:35:13;4.85;;;1.77;;
53253;SDS011;39148;53.332;6.922;2023-08-01T03:37:39;6.50;;;1.83;;
53253;SDS011;39148;53.332;6.922;2023-08-01T03:40:05;5.95;;;1.65;;
53253;SDS011;39148;53.332;6.922;2023-08-01T03:42:35;5.13;;;1.70;;
53253;SDS011;39148;53.332;6.922;2023-08-01T03:45:03;5.13;;;1.45;;
53253;SDS011;39148;53.332;6.922;2023-08-01T03:47:30;6.20;;;2.25;;
53253;SDS011;39148;53.332;6.922;2023-08-01T03:49:56;5.40;;;1.85;;
53253;SDS011;39148;53.332;6.922;2023-08-01T03:52:21;5.63;;;1.90;;
53253;SDS011;39148;53.332;6.922;2023-08-01T03:54:48;6.03;;;2.05;;
53253;SDS011;39148;53.332;6.922;2023-08-01T03:57:13;4.80;;;1.90;;
53253;SDS011;39148;53.332;6.922;2023-08-01T03:59:39;5.53;;;1.92;;
53253;SDS011;39148;53.332;6.922;2023-08-01T04:02:05;4.15;;;1.85;;
53253;SDS011;39148;53.332;6.922;2023-08-01T04:04:31;6.60;;;2.22;;
53253;SDS011;39148;53.332;6.922;2023-08-01T04:06:57;4.43;;;1.70;;
53253;SDS011;39148;53.332;6.922;2023-08-01T04:09:22;5.03;;;1.90;;
53253;SDS011;39148;53.332;6.922;2023-08-01T04:11:48;4.10;;;1.65;;
53253;SDS011;39148;53.332;6.922;2023-08-01T04:14:14;5.00;;;1.85;;
53253;SDS011;39148;53.332;6.922;2023-08-01T04:16:39;3.72;;;1.77;;
53253;SDS011;39148;53.332;6.922;2023-08-01T04:19:05;5.35;;;1.92;;
53253;SDS011;39148;53.332;6.922;2023-08-01T04:21:31;4.38;;;2.00;;
53253;SDS011;39148;53.332;6.922;2023-08-01T04:23:56;4.90;;;1.90;;
53253;SDS011;39148;53.332;6.922;2023-08-01T04:26:22;6.15;;;1.73;;
53253;SDS011;39148;53.332;6.922;2023-08-01T04:28:48;4.45;;;1.77;;
53253;SDS011;39148;53.332;6.922;2023-08-01T04:31:14;4.72;;;1.60;;
53253;SDS011;39148;53.332;6.922;2023-08-01T04:33:39;4.85;;;2.08;;
53253;SDS011;39148;53.332;6.922;2023-08-01T04:36:05;2.83;;;1.50;;
53253;SDS011;39148;53.332;6.922;2023-08-01T04:38:31;4.95;;;1.50;;
53253;SDS011;39148;53.332;6.922;2023-08-01T04:40:56;4.72;;;1.70;;
53253;SDS011;39148;53.332;6.922;2023-08-01T04:43:22;5.40;;;1.65;;
53253;SDS011;39148;53.332;6.922;2023-08-01T04:45:48;4.95;;;2.00;;
53253;SDS011;39148;53.332;6.922;2023-08-01T04:48:13;4.85;;;1.70;;
53253;SDS011;39148;53.332;6.922;2023-08-01T04:50:39;4.22;;;1.80;;
53253;SDS011;39148;53.332;6.922;2023-08-01T04:53:05;4.45;;;2.25;;
53253;SDS011;39148;53.332;6.922;2023-08-01T04:55:31;5.20;;;1.70;;
53253;SDS011;39148;53.332;6.922;2023-08-01T04:57:57;4.40;;;1.50;;
53253;SDS011;39148;53.332;6.922;2023-08-01T05:00:22;3.70;;;1.60;;
53253;SDS011;39148;53.332;6.922;2023-08-01T05:02:48;5.63;;;1.85;;
53253;SDS011;39148;53.332;6.922;2023-08-01T05:05:14;4.18;;;1.42;;
53253;SDS011;39148;53.332;6.922;2023-08-01T05:07:41;4.30;;;1.77;;
53253;SDS011;39148;53.332;6.922;2023-08-01T05:10:07;4.22;;;1.70;;
53253;SDS011;39148;53.332;6.922;2023-08-01T05:12:33;4.63;;;1.42;;
53253;SDS011;39148;53.332;6.922;2023-08-01T05:14:59;4.75;;;1.70;;
53253;SDS011;39148;53.332;6.922;2023-08-01T05:17:24;4.60;;;1.48;;
53253;SDS011;39148;53.332;6.922;2023-08-01T05:19:50;4.68;;;1.60;;
53253;SDS011;39148;53.332;6.922;2023-08-01T05:22:16;4.47;;;1.90;;
53253;SDS011;39148;53.332;6.922;2023-08-01T05:24:41;4.30;;;1.45;;
53253;SDS011;39148;53.332;6.922;2023-08-01T05:27:07;3.75;;;1.20;;
53253;SDS011;39148;53.332;6.922;2023-08-01T05:29:33;4.15;;;1.50;;
53253;SDS011;39148;53.332;6.922;2023-08-01T05:31:58;4.35;;;1.40;;
53253;SDS011;39148;53.332;6.922;2023-08-01T05:34:24;3.85;;;1.50;;
53253;SDS011;39148;53.332;6.922;2023-08-01T05:36:50;3.15;;;1.27;;
53253;SDS011;39148;53.332;6.922;2023-08-01T05:39:16;3.97;;;1.55;;
53253;SDS011;39148;53.332;6.922;2023-08-01T05:41:42;3.67;;;1.33;;
53253;SDS011;39148;53.332;6.922;2023-08-01T05:44:08;4.57;;;1.35;;
53253;SDS011;39148;53.332;6.922;2023-08-01T05:46:34;2.47;;;1.00;;
53253;SDS011;39148;53.332;6.922;2023-08-01T05:48:59;3.85;;;1.38;;
53253;SDS011;39148;53.332;6.922;2023-08-01T05:51:25;3.78;;;1.33;;
53253;SDS011;39148;53.332;6.922;2023-08-01T05:53:51;3.80;;;1.40;;
53253;SDS011;39148;53.332;6.922;2023-08-01T05:56:16;3.40;;;1.10;;
53253;SDS011;39148;53.332;6.922;2023-08-01T05:58:42;3.30;;;1.38;;
53253;SDS011;39148;53.332;6.922;2023-08-01T06:01:10;3.78;;;1.48;;
53253;SDS011;39148;53.332;6.922;2023-08-01T06:03:35;5.60;;;1.85;;
53253;SDS011;39148;53.332;6.922;2023-08-01T06:06:01;2.47;;;0.90;;
53253;SDS011;39148;53.332;6.922;2023-08-01T06:08:27;3.17;;;1.20;;
53253;SDS011;39148;53.332;6.922;2023-08-01T06:10:52;3.45;;;1.15;;
53253;SDS011;39148;53.332;6.922;2023-08-01T06:13:18;4.05;;;1.40;;
53253;SDS011;39148;53.332;6.922;2023-08-01T06:15:44;4.88;;;1.30;;
53253;SDS011;39148;53.332;6.922;2023-08-01T06:18:10;4.35;;;1.30;;
53253;SDS011;39148;53.332;6.922;2023-08-01T06:20:36;3.75;;;1.30;;
53253;SDS011;39148;53.332;6.922;2023-08-01T06:23:02;3.28;;;1.20;;
53253;SDS011;39148;53.332;6.922;2023-08-01T06:25:28;4.10;;;1.35;;
53253;SDS011;39148;53.332;6.922;2023-08-01T06:27:54;3.80;;;1.23;;
53253;SDS011;39148;53.332;6.922;2023-08-01T06:30:19;2.92;;;0.95;;
53253;SDS011;39148;53.332;6.922;2023-08-01T06:32:45;4.68;;;1.08;;
53253;SDS011;39148;53.332;6.922;2023-08-01T06:35:10;3.95;;;1.08;;
53253;SDS011;39148;53.332;6.922;2023-08-01T06:37:36;4.60;;;1.23;;
53253;SDS011;39148;53.332;6.922;2023-08-01T06:40:02;3.85;;;1.15;;
53253;SDS011;39148;53.332;6.922;2023-08-01T06:42:29;3.83;;;1.20;;
53253;SDS011;39148;53.332;6.922;2023-08-01T06:44:55;3.03;;;1.00;;
53253;SDS011;39148;53.332;6.922;2023-08-01T06:47:20;4.55;;;1.08;;
53253;SDS011;39148;53.332;6.922;2023-08-01T06:49:46;2.45;;;1.05;;
53253;SDS011;39148;53.332;6.922;2023-08-01T06:52:12;4.68;;;1.30;;
53253;SDS011;39148;53.332;6.922;2023-08-01T06:54:37;4.13;;;1.08;;
53253;SDS011;39148;53.332;6.922;2023-08-01T06:57:03;3.45;;;1.17;;
53253;SDS011;39148;53.332;6.922;2023-08-01T06:59:29;3.03;;;0.98;;
53253;SDS011;39148;53.332;6.922;2023-08-01T07:01:55;3.15;;;1.25;;
53253;SDS011;39148;53.332;6.922;2023-08-01T07:04:21;3.78;;;1.20;;
53253;SDS011;39148;53.332;6.922;2023-08-01T07:06:46;3.95;;;1.30;;
53253;SDS011;39148;53.332;6.922;2023-08-01T07:09:12;3.92;;;1.00;;
53253;SDS011;39148;53.332;6.922;2023-08-01T07:11:38;2.85;;;0.90;;
53253;SDS011;39148;53.332;6.922;2023-08-01T07:14:03;3.65;;;1.17;;
53253;SDS011;39148;53.332;6.922;2023-08-01T07:16:29;3.63;;;1.00;;
53253;SDS011;39148;53.332;6.922;2023-08-01T07:18:55;2.63;;;1.00;;
53253;SDS011;39148;53.332;6.922;2023-08-01T07:21:21;3.40;;;0.82;;
53253;SDS011;39148;53.332;6.922;2023-08-01T07:23:47;4.22;;;1.00;;
53253;SDS011;39148;53.332;6.922;2023-08-01T07:26:13;2.83;;;1.00;;
53253;SDS011;39148;53.332;6.922;2023-08-01T07:28:39;2.67;;;1.00;;
53253;SDS011;39148;53.332;6.922;2023-08-01T07:31:06;3.42;;;1.10;;
53253;SDS011;39148;53.332;6.922;2023-08-01T07:33:32;2.08;;;0.82;;
53253;SDS011;39148;53.332;6.922;2023-08-01T07:35:59;1.40;;;0.80;;
53253;SDS011;39148;53.332;6.922;2023-08-01T07:38:25;3.38;;;0.95;;
53253;SDS011;39148;53.332;6.922;2023-08-01T07:40:54;2.45;;;0.90;;
53253;SDS011;39148;53.332;6.922;2023-08-01T07:43:20;3.10;;;0.90;;
53253;SDS011;39148;53.332;6.922;2023-08-01T07:45:46;2.50;;;0.85;;
53253;SDS011;39148;53.332;6.922;2023-08-01T07:48:12;2.15;;;0.80;;
53253;SDS011;39148;53.332;6.922;2023-08-01T07:50:37;1.98;;;0.70;;
53253;SDS011;39148;53.332;6.922;2023-08-01T07:53:03;4.53;;;1.15;;
53253;SDS011;39148;53.332;6.922;2023-08-01T07:55:29;2.75;;;0.93;;
53253;SDS011;39148;53.332;6.922;2023-08-01T07:57:59;1.70;;;0.60;;
53253;SDS011;39148;53.332;6.922;2023-08-01T08:00:25;2.35;;;0.90;;
53253;SDS011;39148;53.332;6.922;2023-08-01T08:02:50;2.33;;;0.70;;
53253;SDS011;39148;53.332;6.922;2023-08-01T08:05:18;1.73;;;0.70;;
53253;SDS011;39148;53.332;6.922;2023-08-01T08:07:44;2.15;;;0.70;;
53253;SDS011;39148;53.332;6.922;2023-08-01T08:10:09;2.72;;;0.98;;
53253;SDS011;39148;53.332;6.922;2023-08-01T08:12:35;3.53;;;0.85;;
53253;SDS011;39148;53.332;6.922;2023-08-01T08:15:01;2.63;;;0.80;;
53253;SDS011;39148;53.332;6.922;2023-08-01T08:17:27;3.03;;;0.88;;
53253;SDS011;39148;53.332;6.922;2023-08-01T08:19:53;2.17;;;0.75;;
53253;SDS011;39148;53.332;6.922;2023-08-01T08:22:18;2.15;;;0.70;;
53253;SDS011;39148;53.332;6.922;2023-08-01T08:24:44;3.70;;;0.75;;
53253;SDS011;39148;53.332;6.922;2023-08-01T08:27:10;2.63;;;0.90;;
53253;SDS011;39148;53.332;6.922;2023-08-01T08:29:35;2.50;;;0.70;;
53253;SDS011;39148;53.332;6.922;2023-08-01T08:32:01;2.30;;;0.65;;
53253;SDS011;39148;53.332;6.922;2023-08-01T08:34:27;2.00;;;0.70;;
53253;SDS011;39148;53.332;6.922;2023-08-01T08:36:52;3.03;;;0.98;;
53253;SDS011;39148;53.332;6.922;2023-08-01T08:39:18;2.00;;;0.55;;
53253;SDS011;39148;53.332;6.922;2023-08-01T08:41:47;2.10;;;0.68;;
53253;SDS011;39148;53.332;6.922;2023-08-01T08:44:17;1.75;;;0.50;;
53253;SDS011;39148;53.332;6.922;2023-08-01T08:46:47;3.45;;;0.80;;
53253;SDS011;39148;53.332;6.922;2023-08-01T08:49:19;2.72;;;0.80;;
53253;SDS011;39148;53.332;6.922;2023-08-01T08:51:47;1.85;;;0.60;;
53253;SDS011;39148;53.332;6.922;2023-08-01T08:54:14;2.17;;;0.50;;
53253;SDS011;39148;53.332;6.922;2023-08-01T08:56:41;3.67;;;0.60;;
53253;SDS011;39148;53.332;6.922;2023-08-01T08:59:10;1.67;;;0.60;;
53253;SDS011;39148;53.332;6.922;2023-08-01T09:01:36;3.63;;;0.80;;
53253;SDS011;39148;53.332;6.922;2023-08-01T09:04:03;2.17;;;0.60;;
53253;SDS011;39148;53.332;6.922;2023-08-01T09:06:31;3.25;;;0.60;;
53253;SDS011;39148;53.332;6.922;2023-08-01T09:09:04;2.97;;;0.73;;
53253;SDS011;39148;53.332;6.922;2023-08-01T09:11:46;2.10;;;0.45;;
53253;SDS011;39148;53.332;6.922;2023-08-01T09:14:12;2.15;;;0.70;;
53253;SDS011;39148;53.332;6.922;2023-08-01T09:16:39;2.05;;;0.60;;
53253;SDS011;39148;53.332;6.922;2023-08-01T09:19:06;3.67;;;0.75;;
53253;SDS011;39148;53.332;6.922;2023-08-01T09:21:33;2.85;;;0.70;;
53253;SDS011;39148;53.332;6.922;2023-08-01T09:24:12;2.72;;;0.50;;
53253;SDS011;39148;53.332;6.922;2023-08-01T09:26:38;2.22;;;0.57;;
53253;SDS011;39148;53.332;6.922;2023-08-01T09:29:05;1.52;;;0.40;;
53253;SDS011;39148;53.332;6.922;2023-08-01T09:31:32;2.08;;;1.05;;
53253;SDS011;39148;53.332;6.922;2023-08-01T09:33:59;2.63;;;1.15;;
53253;SDS011;39148;53.332;6.922;2023-08-01T09:36:25;1.70;;;0.50;;
53253;SDS011;39148;53.332;6.922;2023-08-01T09:38:51;1.42;;;0.38;;
53253;SDS011;39148;53.332;6.922;2023-08-01T09:41:22;2.80;;;0.80;;
53253;SDS011;39148;53.332;6.922;2023-08-01T09:43:48;1.45;;;0.40;;
53253;SDS011;39148;53.332;6.922;2023-08-01T09:46:15;2.40;;;0.60;;
53253;SDS011;39148;53.332;6.922;2023-08-01T09:48:41;1.67;;;0.30;;
53253;SDS011;39148;53.332;6.922;2023-08-01T09:51:10;2.95;;;0.50;;
53253;SDS011;39148;53.332;6.922;2023-08-01T09:53:48;1.48;;;0.32;;
53253;SDS011;39148;53.332;6.922;2023-08-01T09:56:17;3.03;;;0.75;;
53253;SDS011;39148;53.332;6.922;2023-08-01T09:58:47;2.78;;;1.08;;
53253;SDS011;39148;53.332;6.922;2023-08-01T10:01:14;2.38;;;0.55;;
53253;SDS011;39148;53.332;6.922;2023-08-01T10:03:44;2.28;;;0.40;;
53253;SDS011;39148;53.332;6.922;2023-08-01T10:06:12;1.65;;;0.70;;
53253;SDS011;39148;53.332;6.922;2023-08-01T10:08:43;2.67;;;0.50;;
53253;SDS011;39148;53.332;6.922;2023-08-01T10:11:10;1.95;;;0.60;;
53253;SDS011;39148;53.332;6.922;2023-08-01T10:13:37;1.75;;;0.40;;
53253;SDS011;39148;53.332;6.922;2023-08-01T10:16:03;1.38;;;0.40;;
53253;SDS011;39148;53.332;6.922;2023-08-01T10:18:30;1.65;;;0.40;;
53253;SDS011;39148;53.332;6.922;2023-08-01T10:20:57;2.30;;;0.70;;
53253;SDS011;39148;53.332;6.922;2023-08-01T10:23:24;1.70;;;0.50;;
53253;SDS011;39148;53.332;6.922;2023-08-01T10:25:50;1.00;;;0.30;;
53253;SDS011;39148;53.332;6.922;2023-08-01T10:28:16;2.00;;;0.40;;
53253;SDS011;39148;53.332;6.922;2023-08-01T10:30:42;1.70;;;0.40;;
53253;SDS011;39148;53.332;6.922;2023-08-01T10:33:07;1.92;;;0.45;;
53253;SDS011;39148;53.332;6.922;2023-08-01T10:35:38;1.63;;;0.40;;
53253;SDS011;39148;53.332;6.922;2023-08-01T10:38:05;1.38;;;0.50;;
53253;SDS011;39148;53.332;6.922;2023-08-01T10:40:42;1.75;;;0.50;;
53253;SDS011;39148;53.332;6.922;2023-08-01T10:43:24;1.75;;;0.65;;
53253;SDS011;39148;53.332;6.922;2023-08-01T10:46:00;2.03;;;0.40;;
53253;SDS011;39148;53.332;6.922;2023-08-01T10:48:27;3.40;;;0.70;;
53253;SDS011;39148;53.332;6.922;2023-08-01T10:50:56;1.98;;;0.52;;
53253;SDS011;39148;53.332;6.922;2023-08-01T10:53:22;1.65;;;0.38;;
53253;SDS011;39148;53.332;6.922;2023-08-01T10:55:48;3.20;;;0.70;;
53253;SDS011;39148;53.332;6.922;2023-08-01T10:58:14;1.83;;;0.40;;
53253;SDS011;39148;53.332;6.922;2023-08-01T11:00:41;3.58;;;0.57;;
53253;SDS011;39148;53.332;6.922;2023-08-01T11:03:07;1.48;;;0.50;;
53253;SDS011;39148;53.332;6.922;2023-08-01T11:05:33;2.08;;;0.40;;
53253;SDS011;39148;53.332;6.922;2023-08-01T11:07:59;2.28;;;0.50;;
53253;SDS011;39148;53.332;6.922;2023-08-01T11:10:27;3.03;;;0.45;;
53253;SDS011;39148;53.332;6.922;2023-08-01T11:12:54;2.08;;;0.43;;
53253;SDS011;39148;53.332;6.922;2023-08-01T11:15:20;1.83;;;0.40;;
53253;SDS011;39148;53.332;6.922;2023-08-01T11:17:53;3.72;;;0.52;;
53253;SDS011;39148;53.332;6.922;2023-08-01T11:20:20;1.40;;;0.43;;
53253;SDS011;39148;53.332;6.922;2023-08-01T11:25:20;1.33;;;0.40;;
53253;SDS011;39148;53.332;6.922;2023-08-01T11:28:04;1.77;;;0.30;;
53253;SDS011;39148;53.332;6.922;2023-08-01T11:30:40;2.83;;;0.70;;
53253;SDS011;39148;53.332;6.922;2023-08-01T11:33:13;2.67;;;0.70;;
53253;SDS011;39148;53.332;6.922;2023-08-01T11:35:40;1.40;;;0.40;;
53253;SDS011;39148;53.332;6.922;2023-08-01T11:38:06;2.03;;;0.40;;
53253;SDS011;39148;53.332;6.922;2023-08-01T11:40:32;1.77;;;0.47;;
53253;SDS011;39148;53.332;6.922;2023-08-01T11:42:58;1.50;;;0.43;;
53253;SDS011;39148;53.332;6.922;2023-08-01T11:45:23;1.38;;;0.40;;
53253;SDS011;39148;53.332;6.922;2023-08-01T11:47:50;2.50;;;0.50;;
53253;SDS011;39148;53.332;6.922;2023-08-01T11:50:23;4.63;;;0.90;;
53253;SDS011;39148;53.332;6.922;2023-08-01T11:52:50;2.45;;;0.60;;
53253;SDS011;39148;53.332;6.922;2023-08-01T11:55:20;2.47;;;0.50;;
53253;SDS011;39148;53.332;6.922;2023-08-01T11:57:53;2.65;;;0.60;;
53253;SDS011;39148;53.332;6.922;2023-08-01T12:00:23;3.00;;;0.80;;
53253;SDS011;39148;53.332;6.922;2023-08-01T12:03:03;4.25;;;0.60;;
53253;SDS011;39148;53.332;6.922;2023-08-01T12:05:33;2.38;;;0.57;;
53253;SDS011;39148;53.332;6.922;2023-08-01T12:08:08;3.20;;;0.90;;
53253;SDS011;39148;53.332;6.922;2023-08-01T12:10:39;2.55;;;0.40;;
53253;SDS011;39148;53.332;6.922;2023-08-01T12:13:06;3.17;;;0.65;;
53253;SDS011;39148;53.332;6.922;2023-08-01T12:15:32;3.13;;;0.45;;
53253;SDS011;39148;53.332;6.922;2023-08-01T12:17:57;3.20;;;0.60;;
53253;SDS011;39148;53.332;6.922;2023-08-01T12:20:23;2.42;;;0.50;;
53253;SDS011;39148;53.332;6.922;2023-08-01T12:22:49;2.65;;;0.32;;
53253;SDS011;39148;53.332;6.922;2023-08-01T12:25:14;2.72;;;0.55;;
53253;SDS011;39148;53.332;6.922;2023-08-01T12:27:40;3.05;;;0.50;;
53253;SDS011;39148;53.332;6.922;2023-08-01T12:30:06;3.53;;;0.43;;
53253;SDS011;39148;53.332;6.922;2023-08-01T12:32:32;3.17;;;0.50;;
53253;SDS011;39148;53.332;6.922;2023-08-01T12:35:00;2.67;;;0.50;;
53253;SDS011;39148;53.332;6.922;2023-08-01T12:37:25;3.35;;;0.50;;
53253;SDS011;39148;53.332;6.922;2023-08-01T12:39:51;2.80;;;0.45;;
53253;SDS011;39148;53.332;6.922;2023-08-01T12:42:18;1.38;;;0.30;;
53253;SDS011;39148;53.332;6.922;2023-08-01T12:44:44;2.33;;;0.60;;
53253;SDS011;39148;53.332;6.922;2023-08-01T12:47:09;3.60;;;0.70;;
53253;SDS011;39148;53.332;6.922;2023-08-01T12:49:36;2.60;;;0.60;;
53253;SDS011;39148;53.332;6.922;2023-08-01T12:52:02;4.28;;;0.63;;
53253;SDS011;39148;53.332;6.922;2023-08-01T12:54:28;3.55;;;0.40;;
53253;SDS011;39148;53.332;6.922;2023-08-01T12:56:54;2.70;;;0.50;;
53253;SDS011;39148;53.332;6.922;2023-08-01T12:59:19;1.05;;;0.32;;
53253;SDS011;39148;53.332;6.922;2023-08-01T13:01:45;3.55;;;0.70;;
53253;SDS011;39148;53.332;6.922;2023-08-01T13:04:11;1.50;;;0.35;;
53253;SDS011;39148;53.332;6.922;2023-08-01T13:06:36;2.50;;;0.52;;
53253;SDS011;39148;53.332;6.922;2023-08-01T13:09:02;2.03;;;0.50;;
53253;SDS011;39148;53.332;6.922;2023-08-01T13:11:28;2.60;;;0.50;;
53253;SDS011;39148;53.332;6.922;2023-08-01T13:13:53;3.03;;;0.50;;
53253;SDS011;39148;53.332;6.922;2023-08-01T13:16:20;2.40;;;0.40;;
53253;SDS011;39148;53.332;6.922;2023-08-01T13:18:46;2.08;;;0.55;;
53253;SDS011;39148;53.332;6.922;2023-08-01T13:21:13;2.58;;;0.50;;
53253;SDS011;39148;53.332;6.922;2023-08-01T13:23:39;3.28;;;0.50;;
53253;SDS011;39148;53.332;6.922;2023-08-01T13:26:04;3.55;;;0.40;;
53253;SDS011;39148;53.332;6.922;2023-08-01T13:28:30;2.35;;;0.47;;
53253;SDS011;39148;53.332;6.922;2023-08-01T13:30:56;1.83;;;0.52;;
53253;SDS011;39148;53.332;6.922;2023-08-01T13:33:21;2.47;;;0.40;;
53253;SDS011;39148;53.332;6.922;2023-08-01T13:35:50;2.65;;;0.50;;
53253;SDS011;39148;53.332;6.922;2023-08-01T13:38:16;2.97;;;0.68;;
53253;SDS011;39148;53.332;6.922;2023-08-01T13:40:42;2.95;;;0.70;;
53253;SDS011;39148;53.332;6.922;2023-08-01T13:43:08;4.18;;;0.95;;
53253;SDS011;39148;53.332;6.922;2023-08-01T13:45:33;3.38;;;0.88;;
53253;SDS011;39148;53.332;6.922;2023-08-01T13:47:59;3.33;;;0.50;;
53253;SDS011;39148;53.332;6.922;2023-08-01T13:50:25;3.08;;;0.50;;
53253;SDS011;39148;53.332;6.922;2023-08-01T13:52:53;1.85;;;0.50;;
53253;SDS011;39148;53.332;6.922;2023-08-01T13:55:19;2.75;;;0.50;;
53253;SDS011;39148;53.332;6.922;2023-08-01T13:57:45;3.83;;;0.90;;
53253;SDS011;39148;53.332;6.922;2023-08-01T14:00:11;1.92;;;0.73;;
53253;SDS011;39148;53.332;6.922;2023-08-01T14:02:37;3.85;;;0.70;;
53253;SDS011;39148;53.332;6.922;2023-08-01T14:05:02;2.53;;;0.57;;
53253;SDS011;39148;53.332;6.922;2023-08-01T14:07:28;3.28;;;0.50;;
53253;SDS011;39148;53.332;6.922;2023-08-01T14:09:54;2.83;;;0.60;;
53253;SDS011;39148;53.332;6.922;2023-08-01T14:12:20;2.33;;;0.45;;
53253;SDS011;39148;53.332;6.922;2023-08-01T14:14:47;4.03;;;0.80;;
53253;SDS011;39148;53.332;6.922;2023-08-01T14:17:13;3.33;;;0.70;;
53253;SDS011;39148;53.332;6.922;2023-08-01T14:19:38;3.65;;;0.80;;
53253;SDS011;39148;53.332;6.922;2023-08-01T14:22:04;3.03;;;0.40;;
53253;SDS011;39148;53.332;6.922;2023-08-01T14:24:30;3.28;;;0.70;;
53253;SDS011;39148;53.332;6.922;2023-08-01T14:26:55;2.78;;;0.60;;
53253;SDS011;39148;53.332;6.922;2023-08-01T14:29:21;3.85;;;0.60;;
53253;SDS011;39148;53.332;6.922;2023-08-01T14:31:50;2.80;;;0.80;;
53253;SDS011;39148;53.332;6.922;2023-08-01T14:34:16;3.55;;;0.60;;
53253;SDS011;39148;53.332;6.922;2023-08-01T14:36:42;2.53;;;0.80;;
53253;SDS011;39148;53.332;6.922;2023-08-01T14:39:08;3.20;;;0.63;;
53253;SDS011;39148;53.332;6.922;2023-08-01T14:41:33;3.97;;;0.60;;
53253;SDS011;39148;53.332;6.922;2023-08-01T14:43:59;2.28;;;0.60;;
53253;SDS011;39148;53.332;6.922;2023-08-01T14:46:25;2.30;;;0.55;;
53253;SDS011;39148;53.332;6.922;2023-08-01T14:48:50;2.67;;;0.55;;